sensor_id;sensor_type;location;lat;lon;timestamp;P1;durP1;ratioP1;P2;durP2;ratioP2
19675;SDS011;39539;52.202;9.876;2022-08-21T00:01:10;5.05;;;1.98;;
19675;SDS011;39539;52.202;9.876;2022-08-21T00:03:39;2.83;;;2.30;;
19675;SDS011;39539;52.202;9.876;2022-08-21T00:06:05;4.50;;;2.08;;
19675;SDS011;39539;52.202;9.876;2022-08-21T00:08:31;3.15;;;2.50;;
19675;SDS011;39539;52.202;9.876;2022-08-21T00:10:56;3.00;;;2.10;;
19675;SDS011;39539;52.202;9.876;2022-08-21T00:13:22;4.20;;;2.33;;
19675;SDS011;39539;52.202;9.876;2022-08-21T00:15:48;2.53;;;1.77;;
19675;SDS011;39539;52.202;9.876;2022-08-21T00:18:14;3.80;;;2.30;;
19675;SDS011;39539;52.202;9.876;2022-08-21T00:20:40;3.70;;;2.22;;
19675;SDS011;39539;52.202;9.876;2022-08-21T00:23:07;2.65;;;2.25;;
19675;SDS011;39539;52.202;9.876;2022-08-21T00:25:33;3.03;;;2.33;;
19675;SDS011;39539;52.202;9.876;2022-08-21T00:27:58;6.30;;;2.60;;
19675;SDS011;39539;52.202;9.876;2022-08-21T00:30:25;3.75;;;2.10;;
19675;SDS011;39539;52.202;9.876;2022-08-21T00:32:51;2.85;;;1.98;;
19675;SDS011;39539;52.202;9.876;2022-08-21T00:35:19;3.08;;;2.33;;
19675;SDS011;39539;52.202;9.876;2022-08-21T00:37:47;2.20;;;2.00;;
19675;SDS011;39539;52.202;9.876;2022-08-21T00:40:14;2.72;;;2.08;;
19675;SDS011;39539;52.202;9.876;2022-08-21T00:42:41;3.10;;;2.22;;
19675;SDS011;39539;52.202;9.876;2022-08-21T00:45:07;4.50;;;2.22;;
19675;SDS011;39539;52.202;9.876;2022-08-21T00:47:33;4.38;;;2.25;;
19675;SDS011;39539;52.202;9.876;2022-08-21T00:49:58;3.78;;;1.83;;
19675;SDS011;39539;52.202;9.876;2022-08-21T00:52:25;2.47;;;1.77;;
19675;SDS011;39539;52.202;9.876;2022-08-21T00:54:56;4.22;;;2.17;;
19675;SDS011;39539;52.202;9.876;2022-08-21T00:57:24;2.90;;;2.08;;
19675;SDS011;39539;52.202;9.876;2022-08-21T00:59:54;3.92;;;2.10;;
19675;SDS011;39539;52.202;9.876;2022-08-21T01:02:23;2.45;;;2.05;;
19675;SDS011;39539;52.202;9.876;2022-08-21T01:04:50;3.00;;;1.90;;
19675;SDS011;39539;52.202;9.876;2022-08-21T01:07:16;3.58;;;2.30;;
19675;SDS011;39539;52.202;9.876;2022-08-21T01:09:42;3.22;;;2.05;;
19675;SDS011;39539;52.202;9.876;2022-08-21T01:12:08;2.75;;;1.90;;
19675;SDS011;39539;52.202;9.876;2022-08-21T01:14:36;3.40;;;2.10;;
19675;SDS011;39539;52.202;9.876;2022-08-21T01:17:02;3.45;;;2.10;;
19675;SDS011;39539;52.202;9.876;2022-08-21T01:19:28;2.40;;;2.20;;
19675;SDS011;39539;52.202;9.876;2022-08-21T01:21:54;3.15;;;2.30;;
19675;SDS011;39539;52.202;9.876;2022-08-21T01:24:20;3.50;;;2.30;;
19675;SDS011;39539;52.202;9.876;2022-08-21T01:26:46;2.83;;;2.30;;
19675;SDS011;39539;52.202;9.876;2022-08-21T01:29:28;2.35;;;2.13;;
19675;SDS011;39539;52.202;9.876;2022-08-21T01:32:09;5.50;;;2.38;;
19675;SDS011;39539;52.202;9.876;2022-08-21T01:34:38;2.38;;;2.17;;
19675;SDS011;39539;52.202;9.876;2022-08-21T01:37:09;2.60;;;2.30;;
19675;SDS011;39539;52.202;9.876;2022-08-21T01:39:35;4.63;;;2.50;;
19675;SDS011;39539;52.202;9.876;2022-08-21T01:42:01;2.78;;;2.55;;
19675;SDS011;39539;52.202;9.876;2022-08-21T01:44:27;4.25;;;2.90;;
19675;SDS011;39539;52.202;9.876;2022-08-21T01:46:54;3.20;;;2.90;;
19675;SDS011;39539;52.202;9.876;2022-08-21T01:49:22;2.92;;;2.72;;
19675;SDS011;39539;52.202;9.876;2022-08-21T01:51:47;4.95;;;2.90;;
19675;SDS011;39539;52.202;9.876;2022-08-21T01:54:13;4.35;;;3.00;;
19675;SDS011;39539;52.202;9.876;2022-08-21T01:56:39;3.40;;;2.67;;
19675;SDS011;39539;52.202;9.876;2022-08-21T01:59:06;3.08;;;2.83;;
19675;SDS011;39539;52.202;9.876;2022-08-21T02:01:32;3.83;;;3.40;;
19675;SDS011;39539;52.202;9.876;2022-08-21T02:03:58;4.15;;;3.08;;
19675;SDS011;39539;52.202;9.876;2022-08-21T02:06:24;4.47;;;3.20;;
19675;SDS011;39539;52.202;9.876;2022-08-21T02:08:50;3.92;;;3.45;;
19675;SDS011;39539;52.202;9.876;2022-08-21T02:11:15;4.93;;;3.28;;
19675;SDS011;39539;52.202;9.876;2022-08-21T02:13:41;3.55;;;3.25;;
19675;SDS011;39539;52.202;9.876;2022-08-21T02:16:07;4.95;;;3.63;;
19675;SDS011;39539;52.202;9.876;2022-08-21T02:18:33;3.63;;;3.35;;
19675;SDS011;39539;52.202;9.876;2022-08-21T02:20:59;4.30;;;3.85;;
19675;SDS011;39539;52.202;9.876;2022-08-21T02:23:25;6.70;;;4.05;;
19675;SDS011;39539;52.202;9.876;2022-08-21T02:25:50;3.97;;;3.42;;
19675;SDS011;39539;52.202;9.876;2022-08-21T02:28:16;4.45;;;4.05;;
19675;SDS011;39539;52.202;9.876;2022-08-21T02:30:45;5.28;;;4.25;;
19675;SDS011;39539;52.202;9.876;2022-08-21T02:33:12;5.68;;;4.03;;
19675;SDS011;39539;52.202;9.876;2022-08-21T02:35:39;5.43;;;4.03;;
19675;SDS011;39539;52.202;9.876;2022-08-21T02:38:09;5.10;;;3.80;;
19675;SDS011;39539;52.202;9.876;2022-08-21T02:40:37;3.97;;;3.63;;
19675;SDS011;39539;52.202;9.876;2022-08-21T02:43:05;4.40;;;4.00;;
19675;SDS011;39539;52.202;9.876;2022-08-21T02:45:31;4.03;;;3.60;;
19675;SDS011;39539;52.202;9.876;2022-08-21T02:48:02;4.30;;;3.90;;
19675;SDS011;39539;52.202;9.876;2022-08-21T02:50:40;6.93;;;3.85;;
19675;SDS011;39539;52.202;9.876;2022-08-21T02:53:08;5.43;;;3.80;;
19675;SDS011;39539;52.202;9.876;2022-08-21T02:55:35;4.63;;;4.20;;
19675;SDS011;39539;52.202;9.876;2022-08-21T02:58:02;4.35;;;3.75;;
19675;SDS011;39539;52.202;9.876;2022-08-21T03:00:30;5.30;;;3.78;;
19675;SDS011;39539;52.202;9.876;2022-08-21T03:02:57;4.65;;;4.18;;
19675;SDS011;39539;52.202;9.876;2022-08-21T03:05:23;5.32;;;3.70;;
19675;SDS011;39539;52.202;9.876;2022-08-21T03:07:49;6.00;;;3.83;;
19675;SDS011;39539;52.202;9.876;2022-08-21T03:10:16;5.20;;;3.72;;
19675;SDS011;39539;52.202;9.876;2022-08-21T03:12:41;4.68;;;4.18;;
19675;SDS011;39539;52.202;9.876;2022-08-21T03:15:08;3.97;;;3.67;;
19675;SDS011;39539;52.202;9.876;2022-08-21T03:17:36;5.15;;;3.50;;
19675;SDS011;39539;52.202;9.876;2022-08-21T03:20:03;3.75;;;3.38;;
19675;SDS011;39539;52.202;9.876;2022-08-21T03:22:29;4.40;;;3.40;;
19675;SDS011;39539;52.202;9.876;2022-08-21T03:24:55;3.90;;;3.60;;
19675;SDS011;39539;52.202;9.876;2022-08-21T03:27:22;4.07;;;3.78;;
19675;SDS011;39539;52.202;9.876;2022-08-21T03:29:47;6.10;;;3.53;;
19675;SDS011;39539;52.202;9.876;2022-08-21T03:32:12;5.82;;;4.10;;
19675;SDS011;39539;52.202;9.876;2022-08-21T03:34:38;5.13;;;4.25;;
19675;SDS011;39539;52.202;9.876;2022-08-21T03:37:04;5.25;;;4.43;;
19675;SDS011;39539;52.202;9.876;2022-08-21T03:39:31;4.45;;;3.78;;
19675;SDS011;39539;52.202;9.876;2022-08-21T03:41:57;4.32;;;3.50;;
19675;SDS011;39539;52.202;9.876;2022-08-21T03:44:24;4.10;;;3.80;;
19675;SDS011;39539;52.202;9.876;2022-08-21T03:46:51;4.43;;;3.60;;
19675;SDS011;39539;52.202;9.876;2022-08-21T03:49:16;3.63;;;3.20;;
19675;SDS011;39539;52.202;9.876;2022-08-21T03:51:42;3.42;;;3.13;;
19675;SDS011;39539;52.202;9.876;2022-08-21T03:54:09;4.32;;;3.30;;
19675;SDS011;39539;52.202;9.876;2022-08-21T03:56:34;3.72;;;3.08;;
19675;SDS011;39539;52.202;9.876;2022-08-21T03:58:59;2.85;;;2.65;;
19675;SDS011;39539;52.202;9.876;2022-08-21T04:01:27;3.10;;;2.85;;
19675;SDS011;39539;52.202;9.876;2022-08-21T04:03:52;3.15;;;2.85;;
19675;SDS011;39539;52.202;9.876;2022-08-21T04:06:17;2.65;;;2.38;;
19675;SDS011;39539;52.202;9.876;2022-08-21T04:08:43;3.22;;;2.88;;
19675;SDS011;39539;52.202;9.876;2022-08-21T04:11:08;3.30;;;3.10;;
19675;SDS011;39539;52.202;9.876;2022-08-21T04:13:35;4.35;;;3.00;;
19675;SDS011;39539;52.202;9.876;2022-08-21T04:16:01;3.20;;;2.90;;
19675;SDS011;39539;52.202;9.876;2022-08-21T04:18:27;3.45;;;3.15;;
19675;SDS011;39539;52.202;9.876;2022-08-21T04:20:53;3.33;;;2.90;;
19675;SDS011;39539;52.202;9.876;2022-08-21T04:23:21;4.57;;;2.72;;
19675;SDS011;39539;52.202;9.876;2022-08-21T04:25:47;3.90;;;3.25;;
19675;SDS011;39539;52.202;9.876;2022-08-21T04:28:12;4.57;;;2.80;;
19675;SDS011;39539;52.202;9.876;2022-08-21T04:30:38;3.50;;;2.55;;
19675;SDS011;39539;52.202;9.876;2022-08-21T04:33:04;3.90;;;2.95;;
19675;SDS011;39539;52.202;9.876;2022-08-21T04:35:30;3.85;;;2.78;;
19675;SDS011;39539;52.202;9.876;2022-08-21T04:37:56;5.30;;;3.03;;
19675;SDS011;39539;52.202;9.876;2022-08-21T04:40:22;3.92;;;2.60;;
19675;SDS011;39539;52.202;9.876;2022-08-21T04:42:51;5.07;;;2.70;;
19675;SDS011;39539;52.202;9.876;2022-08-21T04:45:19;3.35;;;2.90;;
19675;SDS011;39539;52.202;9.876;2022-08-21T04:47:55;3.35;;;2.70;;
19675;SDS011;39539;52.202;9.876;2022-08-21T04:50:22;2.92;;;2.55;;
19675;SDS011;39539;52.202;9.876;2022-08-21T04:53:11;4.60;;;2.60;;
19675;SDS011;39539;52.202;9.876;2022-08-21T04:55:40;3.78;;;2.80;;
19675;SDS011;39539;52.202;9.876;2022-08-21T04:58:08;3.75;;;2.55;;
19675;SDS011;39539;52.202;9.876;2022-08-21T05:00:36;2.85;;;2.50;;
19675;SDS011;39539;52.202;9.876;2022-08-21T05:03:02;2.88;;;2.50;;
19675;SDS011;39539;52.202;9.876;2022-08-21T05:05:30;3.55;;;2.90;;
19675;SDS011;39539;52.202;9.876;2022-08-21T05:07:56;3.15;;;2.63;;
19675;SDS011;39539;52.202;9.876;2022-08-21T05:10:23;2.67;;;2.47;;
19675;SDS011;39539;52.202;9.876;2022-08-21T05:12:49;3.28;;;2.60;;
19675;SDS011;39539;52.202;9.876;2022-08-21T05:15:15;5.95;;;2.50;;
19675;SDS011;39539;52.202;9.876;2022-08-21T05:17:42;2.60;;;2.40;;
19675;SDS011;39539;52.202;9.876;2022-08-21T05:20:11;5.32;;;3.15;;
19675;SDS011;39539;52.202;9.876;2022-08-21T05:22:38;3.13;;;2.30;;
19675;SDS011;39539;52.202;9.876;2022-08-21T05:25:04;2.70;;;2.20;;
19675;SDS011;39539;52.202;9.876;2022-08-21T05:27:31;3.65;;;2.38;;
19675;SDS011;39539;52.202;9.876;2022-08-21T05:29:56;5.25;;;2.40;;
19675;SDS011;39539;52.202;9.876;2022-08-21T05:32:22;2.58;;;2.38;;
19675;SDS011;39539;52.202;9.876;2022-08-21T05:34:48;2.92;;;2.60;;
19675;SDS011;39539;52.202;9.876;2022-08-21T05:37:14;3.40;;;3.08;;
19675;SDS011;39539;52.202;9.876;2022-08-21T05:39:40;3.65;;;3.25;;
19675;SDS011;39539;52.202;9.876;2022-08-21T05:42:05;4.05;;;3.15;;
19675;SDS011;39539;52.202;9.876;2022-08-21T05:44:31;4.57;;;3.15;;
19675;SDS011;39539;52.202;9.876;2022-08-21T05:47:02;3.13;;;2.67;;
19675;SDS011;39539;52.202;9.876;2022-08-21T05:49:29;3.45;;;3.15;;
19675;SDS011;39539;52.202;9.876;2022-08-21T05:51:54;4.45;;;3.30;;
19675;SDS011;39539;52.202;9.876;2022-08-21T05:54:19;3.42;;;2.65;;
19675;SDS011;39539;52.202;9.876;2022-08-21T05:56:45;3.40;;;3.05;;
19675;SDS011;39539;52.202;9.876;2022-08-21T05:59:12;2.80;;;2.50;;
19675;SDS011;39539;52.202;9.876;2022-08-21T06:01:38;2.85;;;2.55;;
19675;SDS011;39539;52.202;9.876;2022-08-21T06:04:04;4.18;;;2.80;;
19675;SDS011;39539;52.202;9.876;2022-08-21T06:06:30;4.38;;;2.42;;
19675;SDS011;39539;52.202;9.876;2022-08-21T06:08:55;3.30;;;2.33;;
19675;SDS011;39539;52.202;9.876;2022-08-21T06:11:21;3.38;;;2.65;;
19675;SDS011;39539;52.202;9.876;2022-08-21T06:13:46;2.75;;;2.20;;
19675;SDS011;39539;52.202;9.876;2022-08-21T06:16:12;3.05;;;2.50;;
19675;SDS011;39539;52.202;9.876;2022-08-21T06:18:40;3.53;;;2.20;;
19675;SDS011;39539;52.202;9.876;2022-08-21T06:21:06;2.55;;;2.30;;
19675;SDS011;39539;52.202;9.876;2022-08-21T06:23:32;2.58;;;2.15;;
19675;SDS011;39539;52.202;9.876;2022-08-21T06:25:59;3.95;;;2.42;;
19675;SDS011;39539;52.202;9.876;2022-08-21T06:28:26;2.65;;;2.45;;
19675;SDS011;39539;52.202;9.876;2022-08-21T06:30:51;4.25;;;2.13;;
19675;SDS011;39539;52.202;9.876;2022-08-21T06:33:16;3.33;;;2.30;;
19675;SDS011;39539;52.202;9.876;2022-08-21T06:35:42;3.45;;;2.38;;
19675;SDS011;39539;52.202;9.876;2022-08-21T06:38:07;5.47;;;2.60;;
19675;SDS011;39539;52.202;9.876;2022-08-21T06:40:33;11.50;;;3.20;;
19675;SDS011;39539;52.202;9.876;2022-08-21T06:43:04;14.30;;;3.20;;
19675;SDS011;39539;52.202;9.876;2022-08-21T06:45:31;3.88;;;3.03;;
19675;SDS011;39539;52.202;9.876;2022-08-21T06:47:57;4.07;;;2.72;;
19675;SDS011;39539;52.202;9.876;2022-08-21T06:50:22;3.17;;;2.67;;
19675;SDS011;39539;52.202;9.876;2022-08-21T06:52:48;2.78;;;2.47;;
19675;SDS011;39539;52.202;9.876;2022-08-21T06:55:13;5.90;;;3.10;;
19675;SDS011;39539;52.202;9.876;2022-08-21T06:57:39;4.88;;;2.90;;
19675;SDS011;39539;52.202;9.876;2022-08-21T07:00:04;3.35;;;2.65;;
19675;SDS011;39539;52.202;9.876;2022-08-21T07:02:31;2.78;;;2.55;;
19675;SDS011;39539;52.202;9.876;2022-08-21T07:04:59;3.13;;;2.83;;
19675;SDS011;39539;52.202;9.876;2022-08-21T07:07:25;3.25;;;2.60;;
19675;SDS011;39539;52.202;9.876;2022-08-21T07:09:50;8.30;;;2.80;;
19675;SDS011;39539;52.202;9.876;2022-08-21T07:12:16;2.97;;;2.58;;
19675;SDS011;39539;52.202;9.876;2022-08-21T07:14:42;3.80;;;2.30;;
19675;SDS011;39539;52.202;9.876;2022-08-21T07:17:08;3.03;;;2.38;;
19675;SDS011;39539;52.202;9.876;2022-08-21T07:19:33;4.07;;;2.72;;
19675;SDS011;39539;52.202;9.876;2022-08-21T07:21:59;3.25;;;2.10;;
19675;SDS011;39539;52.202;9.876;2022-08-21T07:24:26;5.07;;;2.25;;
19675;SDS011;39539;52.202;9.876;2022-08-21T07:26:52;4.00;;;2.20;;
19675;SDS011;39539;52.202;9.876;2022-08-21T07:29:17;3.35;;;2.17;;
19675;SDS011;39539;52.202;9.876;2022-08-21T07:31:44;3.90;;;2.40;;
19675;SDS011;39539;52.202;9.876;2022-08-21T07:34:13;2.60;;;2.13;;
19675;SDS011;39539;52.202;9.876;2022-08-21T07:36:38;4.30;;;2.33;;
19675;SDS011;39539;52.202;9.876;2022-08-21T07:39:04;2.85;;;1.85;;
19675;SDS011;39539;52.202;9.876;2022-08-21T07:41:29;3.22;;;2.10;;
19675;SDS011;39539;52.202;9.876;2022-08-21T07:43:57;5.15;;;2.20;;
19675;SDS011;39539;52.202;9.876;2022-08-21T07:46:23;3.22;;;1.95;;
19675;SDS011;39539;52.202;9.876;2022-08-21T07:48:52;2.30;;;1.80;;
19675;SDS011;39539;52.202;9.876;2022-08-21T07:51:20;2.67;;;1.85;;
19675;SDS011;39539;52.202;9.876;2022-08-21T07:53:49;2.78;;;1.90;;
19675;SDS011;39539;52.202;9.876;2022-08-21T07:56:16;2.20;;;1.70;;
19675;SDS011;39539;52.202;9.876;2022-08-21T07:58:42;6.03;;;2.08;;
19675;SDS011;39539;52.202;9.876;2022-08-21T08:01:08;2.30;;;2.10;;
19675;SDS011;39539;52.202;9.876;2022-08-21T08:03:33;5.15;;;2.53;;
19675;SDS011;39539;52.202;9.876;2022-08-21T08:05:59;2.75;;;2.50;;
19675;SDS011;39539;52.202;9.876;2022-08-21T08:08:24;4.50;;;2.72;;
19675;SDS011;39539;52.202;9.876;2022-08-21T08:10:50;4.43;;;2.70;;
19675;SDS011;39539;52.202;9.876;2022-08-21T08:13:17;5.28;;;2.60;;
19675;SDS011;39539;52.202;9.876;2022-08-21T08:15:43;3.70;;;2.35;;
19675;SDS011;39539;52.202;9.876;2022-08-21T08:18:08;3.25;;;2.20;;
19675;SDS011;39539;52.202;9.876;2022-08-21T08:20:33;3.78;;;1.95;;
19675;SDS011;39539;52.202;9.876;2022-08-21T08:22:59;4.35;;;2.00;;
19675;SDS011;39539;52.202;9.876;2022-08-21T08:25:24;3.58;;;2.00;;
19675;SDS011;39539;52.202;9.876;2022-08-21T08:27:51;2.17;;;1.80;;
19675;SDS011;39539;52.202;9.876;2022-08-21T08:30:18;2.53;;;1.60;;
19675;SDS011;39539;52.202;9.876;2022-08-21T08:32:45;3.47;;;2.00;;
19675;SDS011;39539;52.202;9.876;2022-08-21T08:35:11;2.58;;;1.75;;
19675;SDS011;39539;52.202;9.876;2022-08-21T08:37:37;2.05;;;1.80;;
19675;SDS011;39539;52.202;9.876;2022-08-21T08:40:05;5.13;;;1.92;;
19675;SDS011;39539;52.202;9.876;2022-08-21T08:42:55;2.92;;;1.50;;
19675;SDS011;39539;52.202;9.876;2022-08-21T08:45:21;4.88;;;2.38;;
19675;SDS011;39539;52.202;9.876;2022-08-21T08:47:52;4.47;;;1.60;;
19675;SDS011;39539;52.202;9.876;2022-08-21T08:50:44;2.35;;;1.63;;
19675;SDS011;39539;52.202;9.876;2022-08-21T08:55:56;4.20;;;1.45;;
19675;SDS011;39539;52.202;9.876;2022-08-21T08:58:33;4.28;;;1.52;;
19675;SDS011;39539;52.202;9.876;2022-08-21T09:01:06;2.97;;;1.70;;
19675;SDS011;39539;52.202;9.876;2022-08-21T09:03:40;2.17;;;1.30;;
19675;SDS011;39539;52.202;9.876;2022-08-21T09:08:46;1.60;;;1.27;;
19675;SDS011;39539;52.202;9.876;2022-08-21T09:11:36;2.38;;;1.23;;
19675;SDS011;39539;52.202;9.876;2022-08-21T09:20:08;3.08;;;1.33;;
19675;SDS011;39539;52.202;9.876;2022-08-21T09:28:47;3.25;;;1.30;;
19675;SDS011;39539;52.202;9.876;2022-08-21T09:31:21;2.03;;;1.30;;
19675;SDS011;39539;52.202;9.876;2022-08-21T09:33:49;2.40;;;1.13;;
19675;SDS011;39539;52.202;9.876;2022-08-21T09:36:25;2.60;;;1.27;;
19675;SDS011;39539;52.202;9.876;2022-08-21T09:38:58;3.83;;;1.38;;
19675;SDS011;39539;52.202;9.876;2022-08-21T09:41:27;1.95;;;1.10;;
19675;SDS011;39539;52.202;9.876;2022-08-21T09:43:56;2.53;;;1.10;;
19675;SDS011;39539;52.202;9.876;2022-08-21T09:46:24;2.45;;;1.35;;
19675;SDS011;39539;52.202;9.876;2022-08-21T09:48:56;4.93;;;1.90;;
19675;SDS011;39539;52.202;9.876;2022-08-21T09:51:34;2.88;;;1.45;;
19675;SDS011;39539;52.202;9.876;2022-08-21T09:56:37;2.85;;;1.15;;
19675;SDS011;39539;52.202;9.876;2022-08-21T09:59:32;2.70;;;1.40;;
19675;SDS011;39539;52.202;9.876;2022-08-21T10:02:00;3.95;;;1.30;;
19675;SDS011;39539;52.202;9.876;2022-08-21T10:04:28;3.30;;;1.25;;
19675;SDS011;39539;52.202;9.876;2022-08-21T10:07:09;2.35;;;1.20;;
19675;SDS011;39539;52.202;9.876;2022-08-21T10:09:37;2.53;;;1.17;;
19675;SDS011;39539;52.202;9.876;2022-08-21T10:15:15;2.67;;;1.20;;
19675;SDS011;39539;52.202;9.876;2022-08-21T10:17:35;2.53;;;1.17;;
19675;SDS011;39539;52.202;9.876;2022-08-21T10:22:41;4.15;;;1.52;;
19675;SDS011;39539;52.202;9.876;2022-08-21T10:28:08;2.75;;;1.30;;
19675;SDS011;39539;52.202;9.876;2022-08-21T10:41:59;3.22;;;1.42;;
19675;SDS011;39539;52.202;9.876;2022-08-21T10:47:35;3.58;;;1.30;;
19675;SDS011;39539;52.202;9.876;2022-08-21T10:50:06;2.72;;;1.48;;
19675;SDS011;39539;52.202;9.876;2022-08-21T10:52:49;3.78;;;1.70;;
19675;SDS011;39539;52.202;9.876;2022-08-21T10:55:26;2.70;;;1.50;;
19675;SDS011;39539;52.202;9.876;2022-08-21T10:57:58;4.93;;;1.45;;
19675;SDS011;39539;52.202;9.876;2022-08-21T11:00:33;3.13;;;1.88;;
19675;SDS011;39539;52.202;9.876;2022-08-21T11:03:52;2.83;;;1.38;;
19675;SDS011;39539;52.202;9.876;2022-08-21T11:06:04;2.53;;;1.50;;
19675;SDS011;39539;52.202;9.876;2022-08-21T11:08:33;3.20;;;1.58;;
19675;SDS011;39539;52.202;9.876;2022-08-21T11:11:19;3.03;;;1.35;;
19675;SDS011;39539;52.202;9.876;2022-08-21T11:13:55;2.80;;;1.48;;
19675;SDS011;39539;52.202;9.876;2022-08-21T11:19:15;3.25;;;1.30;;
19675;SDS011;39539;52.202;9.876;2022-08-21T11:24:50;2.25;;;1.33;;
19675;SDS011;39539;52.202;9.876;2022-08-21T11:27:45;2.67;;;1.30;;
19675;SDS011;39539;52.202;9.876;2022-08-21T11:30:15;2.22;;;1.30;;
19675;SDS011;39539;52.202;9.876;2022-08-21T11:35:54;2.03;;;1.30;;
19675;SDS011;39539;52.202;9.876;2022-08-21T11:41:36;2.88;;;1.25;;
19675;SDS011;39539;52.202;9.876;2022-08-21T11:47:12;2.58;;;1.15;;
19675;SDS011;39539;52.202;9.876;2022-08-21T11:52:46;3.28;;;1.50;;
19675;SDS011;39539;52.202;9.876;2022-08-21T11:56:02;1.83;;;0.98;;
19675;SDS011;39539;52.202;9.876;2022-08-21T12:03:26;2.13;;;1.10;;
19675;SDS011;39539;52.202;9.876;2022-08-21T12:06:16;3.15;;;0.95;;
19675;SDS011;39539;52.202;9.876;2022-08-21T12:09:03;5.15;;;1.30;;
19675;SDS011;39539;52.202;9.876;2022-08-21T12:11:45;1.58;;;1.00;;
19675;SDS011;39539;52.202;9.876;2022-08-21T12:14:15;1.92;;;1.17;;
19675;SDS011;39539;52.202;9.876;2022-08-21T12:16:46;1.77;;;1.10;;
19675;SDS011;39539;52.202;9.876;2022-08-21T12:30:05;1.90;;;1.08;;
19675;SDS011;39539;52.202;9.876;2022-08-21T12:32:44;1.15;;;0.90;;
19675;SDS011;39539;52.202;9.876;2022-08-21T12:35:21;1.60;;;1.20;;
19675;SDS011;39539;52.202;9.876;2022-08-21T12:37:52;2.17;;;1.02;;
19675;SDS011;39539;52.202;9.876;2022-08-21T12:40:41;2.22;;;1.17;;
19675;SDS011;39539;52.202;9.876;2022-08-21T12:43:23;2.00;;;1.15;;
19675;SDS011;39539;52.202;9.876;2022-08-21T12:45:54;1.17;;;1.08;;
19675;SDS011;39539;52.202;9.876;2022-08-21T12:48:25;2.20;;;1.30;;
19675;SDS011;39539;52.202;9.876;2022-08-21T12:50:55;2.63;;;1.20;;
19675;SDS011;39539;52.202;9.876;2022-08-21T12:53:30;2.60;;;1.27;;
19675;SDS011;39539;52.202;9.876;2022-08-21T12:56:01;3.22;;;1.20;;
19675;SDS011;39539;52.202;9.876;2022-08-21T12:58:28;2.22;;;1.23;;
19675;SDS011;39539;52.202;9.876;2022-08-21T13:01:15;2.95;;;1.33;;
19675;SDS011;39539;52.202;9.876;2022-08-21T13:04:01;1.55;;;1.13;;
19675;SDS011;39539;52.202;9.876;2022-08-21T13:06:29;1.30;;;1.10;;
19675;SDS011;39539;52.202;9.876;2022-08-21T13:09:04;3.97;;;1.20;;
19675;SDS011;39539;52.202;9.876;2022-08-21T13:11:32;2.58;;;1.30;;
19675;SDS011;39539;52.202;9.876;2022-08-21T13:13:57;2.15;;;1.30;;
19675;SDS011;39539;52.202;9.876;2022-08-21T13:16:26;2.58;;;1.45;;
19675;SDS011;39539;52.202;9.876;2022-08-21T13:18:55;2.60;;;1.30;;
19675;SDS011;39539;52.202;9.876;2022-08-21T13:21:27;2.15;;;1.10;;
19675;SDS011;39539;52.202;9.876;2022-08-21T13:24:11;1.17;;;1.05;;
19675;SDS011;39539;52.202;9.876;2022-08-21T13:26:39;1.77;;;1.20;;
19675;SDS011;39539;52.202;9.876;2022-08-21T13:29:09;2.13;;;1.25;;
19675;SDS011;39539;52.202;9.876;2022-08-21T13:31:36;1.85;;;1.13;;
19675;SDS011;39539;52.202;9.876;2022-08-21T13:34:04;3.05;;;1.30;;
19675;SDS011;39539;52.202;9.876;2022-08-21T13:36:32;1.45;;;1.10;;
19675;SDS011;39539;52.202;9.876;2022-08-21T13:39:01;2.00;;;1.30;;
19675;SDS011;39539;52.202;9.876;2022-08-21T13:41:35;3.80;;;1.05;;
19675;SDS011;39539;52.202;9.876;2022-08-21T13:44:05;1.92;;;1.27;;
19675;SDS011;39539;52.202;9.876;2022-08-21T13:46:44;3.10;;;1.20;;
19675;SDS011;39539;52.202;9.876;2022-08-21T13:49:13;2.80;;;1.23;;
19675;SDS011;39539;52.202;9.876;2022-08-21T13:51:42;1.80;;;1.25;;
19675;SDS011;39539;52.202;9.876;2022-08-21T13:56:48;1.95;;;1.23;;
19675;SDS011;39539;52.202;9.876;2022-08-21T13:59:28;1.45;;;1.15;;
19675;SDS011;39539;52.202;9.876;2022-08-21T14:02:01;2.38;;;1.45;;
19675;SDS011;39539;52.202;9.876;2022-08-21T14:04:38;1.38;;;1.10;;
19675;SDS011;39539;52.202;9.876;2022-08-21T14:07:19;2.20;;;1.10;;
19675;SDS011;39539;52.202;9.876;2022-08-21T14:09:49;1.90;;;1.25;;
19675;SDS011;39539;52.202;9.876;2022-08-21T14:12:25;1.48;;;1.20;;
19675;SDS011;39539;52.202;9.876;2022-08-21T14:14:54;1.30;;;1.10;;
19675;SDS011;39539;52.202;9.876;2022-08-21T14:17:30;1.73;;;1.23;;
19675;SDS011;39539;52.202;9.876;2022-08-21T14:20:00;1.77;;;1.27;;
19675;SDS011;39539;52.202;9.876;2022-08-21T14:22:28;2.38;;;1.30;;
19675;SDS011;39539;52.202;9.876;2022-08-21T14:25:45;2.83;;;1.20;;
19675;SDS011;39539;52.202;9.876;2022-08-21T14:30:32;1.65;;;1.08;;
19675;SDS011;39539;52.202;9.876;2022-08-21T14:33:00;3.65;;;1.38;;
19675;SDS011;39539;52.202;9.876;2022-08-21T14:35:27;2.55;;;1.13;;
19675;SDS011;39539;52.202;9.876;2022-08-21T14:37:53;1.58;;;1.23;;
19675;SDS011;39539;52.202;9.876;2022-08-21T14:40:20;2.72;;;1.30;;
19675;SDS011;39539;52.202;9.876;2022-08-21T14:42:48;3.03;;;1.45;;
19675;SDS011;39539;52.202;9.876;2022-08-21T14:45:19;1.52;;;1.23;;
19675;SDS011;39539;52.202;9.876;2022-08-21T14:47:50;2.65;;;1.20;;
19675;SDS011;39539;52.202;9.876;2022-08-21T14:50:17;1.63;;;1.20;;
19675;SDS011;39539;52.202;9.876;2022-08-21T14:52:43;2.67;;;1.58;;
19675;SDS011;39539;52.202;9.876;2022-08-21T14:55:10;2.45;;;1.52;;
19675;SDS011;39539;52.202;9.876;2022-08-21T14:57:39;1.55;;;1.13;;
19675;SDS011;39539;52.202;9.876;2022-08-21T15:00:05;2.78;;;1.50;;
19675;SDS011;39539;52.202;9.876;2022-08-21T15:02:32;2.97;;;1.30;;
19675;SDS011;39539;52.202;9.876;2022-08-21T15:04:57;1.90;;;1.38;;
19675;SDS011;39539;52.202;9.876;2022-08-21T15:07:23;3.42;;;1.40;;
19675;SDS011;39539;52.202;9.876;2022-08-21T15:09:48;2.00;;;1.23;;
19675;SDS011;39539;52.202;9.876;2022-08-21T15:12:13;2.03;;;1.27;;
19675;SDS011;39539;52.202;9.876;2022-08-21T15:14:40;2.80;;;1.42;;
19675;SDS011;39539;52.202;9.876;2022-08-21T15:17:06;1.88;;;1.10;;
19675;SDS011;39539;52.202;9.876;2022-08-21T15:19:33;2.47;;;1.40;;
19675;SDS011;39539;52.202;9.876;2022-08-21T15:21:59;2.92;;;1.73;;
19675;SDS011;39539;52.202;9.876;2022-08-21T15:24:24;1.63;;;1.20;;
19675;SDS011;39539;52.202;9.876;2022-08-21T15:26:50;2.85;;;1.38;;
19675;SDS011;39539;52.202;9.876;2022-08-21T15:29:17;1.90;;;1.65;;
19675;SDS011;39539;52.202;9.876;2022-08-21T15:31:55;2.25;;;1.48;;
19675;SDS011;39539;52.202;9.876;2022-08-21T15:34:23;2.10;;;1.40;;
19675;SDS011;39539;52.202;9.876;2022-08-21T15:36:51;1.98;;;1.48;;
19675;SDS011;39539;52.202;9.876;2022-08-21T15:39:16;2.70;;;1.65;;
19675;SDS011;39539;52.202;9.876;2022-08-21T15:41:42;1.95;;;1.55;;
19675;SDS011;39539;52.202;9.876;2022-08-21T15:44:09;1.88;;;1.52;;
19675;SDS011;39539;52.202;9.876;2022-08-21T15:46:37;2.00;;;1.67;;
19675;SDS011;39539;52.202;9.876;2022-08-21T15:49:03;3.00;;;1.73;;
19675;SDS011;39539;52.202;9.876;2022-08-21T15:51:28;4.47;;;2.03;;
19675;SDS011;39539;52.202;9.876;2022-08-21T15:53:53;1.88;;;1.63;;
19675;SDS011;39539;52.202;9.876;2022-08-21T15:58:57;2.75;;;1.80;;
19675;SDS011;39539;52.202;9.876;2022-08-21T16:01:26;2.45;;;2.00;;
19675;SDS011;39539;52.202;9.876;2022-08-21T16:03:52;2.08;;;1.88;;
19675;SDS011;39539;52.202;9.876;2022-08-21T16:06:20;2.60;;;1.80;;
19675;SDS011;39539;52.202;9.876;2022-08-21T16:08:45;2.53;;;1.60;;
19675;SDS011;39539;52.202;9.876;2022-08-21T16:11:14;2.00;;;1.80;;
19675;SDS011;39539;52.202;9.876;2022-08-21T16:13:41;2.65;;;1.85;;
19675;SDS011;39539;52.202;9.876;2022-08-21T16:16:12;3.88;;;2.15;;
19675;SDS011;39539;52.202;9.876;2022-08-21T16:18:41;2.42;;;2.10;;
19675;SDS011;39539;52.202;9.876;2022-08-21T16:21:07;3.83;;;2.30;;
19675;SDS011;39539;52.202;9.876;2022-08-21T16:23:33;5.40;;;2.50;;